createdAt,value
2019-05-10T09:29:46.514Z,59.94
2019-05-10T09:32:14.800Z,60.00
2019-05-10T09:34:43.119Z,56.99
2019-05-10T09:37:14.319Z,53.80
2019-05-10T09:39:42.390Z,51.87
2019-05-10T09:42:24.875Z,53.69
2019-05-10T09:44:41.099Z,70.30
2019-05-10T09:47:09.447Z,57.04
2019-05-10T09:49:37.752Z,51.01
2019-05-10T15:30:55.069Z,45.17
2019-05-10T15:33:23.447Z,44.55
2019-05-10T15:35:53.891Z,44.75
2019-05-10T15:38:21.841Z,44.98
2019-05-10T15:40:50.250Z,46.22
2019-05-10T15:43:20.102Z,45.74
2019-05-10T15:45:52.566Z,45.54
2019-05-10T15:48:18.720Z,45.44
2019-05-10T15:50:47.123Z,45.88
2019-05-10T15:53:19.418Z,45.44
2019-05-10T15:55:45.502Z,45.74
2019-05-10T15:58:13.886Z,45.79
2019-05-10T16:00:42.238Z,46.69
2019-05-10T16:03:10.573Z,47.56
2019-05-10T16:05:43.609Z,46.36
2019-05-10T16:08:08.996Z,43.78
2019-05-10T16:10:39.560Z,46.47
2019-05-10T16:13:07.463Z,45.50
2019-05-10T16:15:35.797Z,45.13
2019-05-10T16:18:04.540Z,45.12
2019-05-10T16:20:37.277Z,45.14
2019-05-10T16:23:08.345Z,45.05
2019-05-10T16:25:41.122Z,45.00
2019-05-10T16:28:03.216Z,44.88
2019-05-10T16:30:31.501Z,44.79
2019-05-10T16:32:59.873Z,44.91
2019-05-10T16:35:38.421Z,44.93
2019-05-10T16:37:58.276Z,44.79
2019-05-10T16:40:26.570Z,44.87
2019-05-10T16:42:55.158Z,44.71
2019-05-10T16:45:23.441Z,44.35
2019-05-10T16:47:51.834Z,44.65
2019-05-10T16:50:20.289Z,44.64
2019-05-10T16:52:48.624Z,44.82
2019-05-10T16:55:16.999Z,44.77
2019-05-10T16:57:45.344Z,44.65
2019-05-10T17:00:14.077Z,44.34
2019-05-10T17:02:43.929Z,44.60
2019-05-10T17:05:15.214Z,44.70
2019-05-10T17:07:42.551Z,44.48
2019-05-10T17:10:11.152Z,44.79
2019-05-10T17:12:39.483Z,44.90
2019-05-10T17:15:08.836Z,44.85
2019-05-10T17:17:39.169Z,44.77
2019-05-10T17:20:14.171Z,44.82
2019-05-10T17:22:38.605Z,44.69
2019-05-10T17:25:11.927Z,44.68
2019-05-10T17:27:40.251Z,44.72
2019-05-10T17:30:08.922Z,44.85
2019-05-10T17:32:37.220Z,44.75
2019-05-10T17:35:07.486Z,44.88
2019-05-10T17:37:37.422Z,44.87
2019-05-10T17:40:10.170Z,44.62
